TimeCST,TemperatureF,Dew PointF,Humidity,Sea Level PressureIn,VisibilityMPH,Wind Direction,Wind SpeedMPH,Gust SpeedMPH,PrecipitationIn,Events,Conditions,WindDirDegrees,DateUTC
12:02 AM,28.4,24.8,86,29.54,6.0,West,23.0,36.8,0.00,Snow,Light Snow,270,2013-02-19 06:02:00
12:47 AM,28.4,21.2,74,29.56,10.0,West,27.6,35.7,0.00,,Overcast,270,2013-02-19 06:47:00
12:51 AM,27.0,21.0,78,29.57,10.0,West,31.1,38.0,0.00,,Overcast,280,2013-02-19 06:51:00
1:00 AM,26.6,21.2,80,29.56,10.0,West,26.5,39.1,N/A,,Overcast,280,2013-02-19 07:00:00
1:25 AM,24.8,19.4,80,29.58,10.0,West,27.6,36.8,N/A,,Overcast,280,2013-02-19 07:25:00
1:51 AM,25.0,19.0,78,29.61,10.0,West,20.7,31.1,N/A,,Overcast,280,2013-02-19 07:51:00
2:51 AM,21.9,17.1,82,29.65,10.0,West,25.3,36.8,N/A,,Overcast,270,2013-02-19 08:51:00
3:51 AM,19.9,14.0,78,29.67,9.0,West,19.6,35.7,0.00,Snow,Light Snow,260,2013-02-19 09:51:00
4:51 AM,18.0,10.9,74,29.69,7.0,West,21.9,31.1,0.00,Snow,Light Snow,270,2013-02-19 10:51:00
5:06 AM,17.6,10.4,73,29.68,3.0,West,19.6,32.2,0.00,Snow,Light Snow,270,2013-02-19 11:06:00
5:32 AM,17.6,12.2,79,29.69,2.0,West,19.6,27.6,0.00,Snow,Light Snow,270,2013-02-19 11:32:00
5:51 AM,17.1,12.0,81,29.71,4.0,West,18.4,28.8,0.00,Snow,Light Snow,260,2013-02-19 11:51:00
6:51 AM,15.1,10.0,80,29.74,3.0,West,18.4,28.8,0.00,Snow,Light Snow,270,2013-02-19 12:51:00
7:01 AM,15.8,8.6,73,29.72,2.0,West,25.3,33.4,N/A,Snow,Light Snow,280,2013-02-19 13:01:00
7:08 AM,15.8,8.6,73,29.73,1.8,West,18.4,33.4,0.00,Snow,Light Snow,270,2013-02-19 13:08:00
7:20 AM,14.0,8.6,79,29.74,1.8,West,17.3,34.5,0.00,Snow,Light Snow,280,2013-02-19 13:20:00
7:25 AM,15.8,8.6,73,29.74,2.5,West,16.1,27.6,0.00,Snow,Light Snow,270,2013-02-19 13:25:00
7:39 AM,15.8,8.6,73,29.75,3.0,West,18.4,29.9,0.00,Snow,Light Snow,270,2013-02-19 13:39:00
7:51 AM,15.1,9.0,77,29.77,5.0,West,20.7,27.6,0.00,Snow,Light Snow,260,2013-02-19 13:51:00
8:17 AM,14.0,8.6,79,29.76,5.0,West,17.3,39.1,0.00,Snow,Light Snow,280,2013-02-19 14:17:00
8:43 AM,14.0,8.6,79,29.78,3.0,West,23.0,36.8,0.00,Snow,Light Snow,280,2013-02-19 14:43:00
8:51 AM,14.0,7.0,74,29.80,4.0,West,24.2,34.5,0.00,Snow,Light Snow,270,2013-02-19 14:51:00
9:01 AM,15.8,8.6,73,29.78,6.0,West,23.0,33.4,0.00,Snow,Light Snow,280,2013-02-19 15:01:00
9:51 AM,15.1,7.0,70,29.83,7.0,West,21.9,33.4,0.00,Snow,Light Snow,270,2013-02-19 15:51:00
10:16 AM,15.8,6.8,68,29.82,5.0,West,24.2,33.4,0.00,Snow,Light Snow,270,2013-02-19 16:16:00
10:51 AM,14.0,6.1,71,29.87,6.0,West,21.9,38.0,0.00,Snow,Light Snow,280,2013-02-19 16:51:00
12:51 PM,15.1,6.1,68,29.91,8.0,West,21.9,31.1,0.00,,Overcast,270,2013-02-19 18:51:00
1:51 PM,15.1,6.1,68,29.93,10.0,West,20.7,31.1,0.00,,Overcast,270,2013-02-19 19:51:00
2:51 PM,15.1,7.0,70,29.96,5.0,West,23.0,28.8,0.00,Snow,Light Snow,270,2013-02-19 20:51:00
3:51 PM,15.1,6.1,68,29.99,9.0,West,24.2,31.1,0.00,Snow,Light Snow,280,2013-02-19 21:51:00
4:51 PM,15.1,6.1,68,30.03,9.0,West,18.4,29.9,0.00,Snow,Light Snow,280,2013-02-19 22:51:00
6:51 PM,14.0,5.0,67,30.09,10.0,West,16.1,25.3,0.00,,Overcast,280,2013-02-20 00:51:00
7:51 PM,14.0,3.9,64,30.11,10.0,WNW,18.4,23.0,N/A,,Overcast,290,2013-02-20 01:51:00
8:51 PM,12.9,3.9,67,30.14,10.0,WNW,16.1,-,N/A,,Scattered Clouds,290,2013-02-20 02:51:00
9:51 PM,12.0,3.9,70,30.16,10.0,WNW,12.7,-,N/A,,Scattered Clouds,300,2013-02-20 03:51:00
10:51 PM,12.9,1.9,62,30.17,10.0,NW,19.6,27.6,N/A,,Mostly Cloudy,320,2013-02-20 04:51:00
11:51 PM,12.0,-0.0,59,30.19,10.0,NW,17.3,25.3,N/A,,Clear,310,2013-02-20 05:51:00